Time;durP1;ratioP1;P1;durP2;ratioP2;P2;SDS_P1;SDS_P2;PMS_P1;PMS_P2;Temp;Humidity;BMP_temperature;BMP_pressure;BME280_temperature;BME280_humidity;BME280_pressure;Samples;Min_cycle;Max_cycle;Signal;HPM_P1;HPM_P2
2023/02/28 00:01:31;;;;;;;4.53;2.05;;;;;;;;;;5049070;28;20366;-70
2023/02/28 00:03:56;;;;;;;4.50;2.00;;;;;;;;;;5051011;28;20673;-68
2023/02/28 00:06:21;;;;;;;4.82;2.45;;;;;;;;;;5051084;28;20031;-68
2023/02/28 00:08:46;;;;;;;4.47;2.70;;;;;;;;;;5050996;28;20456;-68
2023/02/28 00:11:13;;;;;;;7.07;2.30;;;;;;;;;;5045235;28;20475;-68
2023/02/28 00:13:40;;;;;;;4.05;2.70;;;;;;;;;;5059090;28;20270;-78
2023/02/28 00:16:06;;;;;;;2.92;2.08;;;;;;;;;;5049014;28;20040;-64
2023/02/28 00:18:32;;;;;;;7.25;2.28;;;;;;;;;;5040254;28;20104;-65
2023/02/28 00:20:57;;;;;;;5.30;2.13;;;;;;;;;;5040570;28;20109;-66
2023/02/28 00:23:22;;;;;;;3.28;2.08;;;;;;;;;;5050704;28;20070;-66
2023/02/28 00:25:48;;;;;;;3.83;2.28;;;;;;;;;;5050490;28;20036;-67
2023/02/28 00:28:13;;;;;;;4.97;2.50;;;;;;;;;;5050806;28;20029;-65
2023/02/28 00:30:38;;;;;;;7.83;3.00;;;;;;;;;;5046461;28;20036;-67
2023/02/28 00:33:03;;;;;;;6.72;2.88;;;;;;;;;;5046577;28;20275;-67
2023/02/28 00:35:29;;;;;;;5.13;2.33;;;;;;;;;;5043720;28;20488;-65
2023/02/28 00:37:54;;;;;;;5.55;2.15;;;;;;;;;;5038084;28;20040;-66
2023/02/28 00:40:19;;;;;;;5.47;2.70;;;;;;;;;;5038123;28;20041;-65
2023/02/28 00:42:44;;;;;;;3.77;2.20;;;;;;;;;;5047357;28;20268;-65
2023/02/28 00:45:10;;;;;;;5.33;2.13;;;;;;;;;;5057974;28;20367;-67
2023/02/28 00:47:35;;;;;;;9.40;2.95;;;;;;;;;;5049712;28;20411;-65
2023/02/28 00:50:01;;;;;;;4.57;2.00;;;;;;;;;;5044984;28;20481;-72
2023/02/28 00:52:26;;;;;;;5.20;2.42;;;;;;;;;;5040023;28;20280;-66
2023/02/28 00:54:51;;;;;;;4.55;2.08;;;;;;;;;;5046916;28;20507;-66
2023/02/28 00:57:16;;;;;;;4.13;2.23;;;;;;;;;;5049290;28;20036;-68
2023/02/28 00:59:41;;;;;;;8.83;3.40;;;;;;;;;;5049924;28;20307;-67
2023/02/28 01:02:07;;;;;;;5.67;2.10;;;;;;;;;;5046595;28;20306;-66
2023/02/28 01:04:32;;;;;;;7.53;3.00;;;;;;;;;;5039330;28;20272;-67
2023/02/28 01:06:57;;;;;;;3.97;2.28;;;;;;;;;;5035894;28;20080;-70
2023/02/28 01:09:23;;;;;;;6.53;2.45;;;;;;;;;;5043367;28;20040;-71
2023/02/28 01:11:48;;;;;;;6.72;2.88;;;;;;;;;;5049204;28;20033;-68
2023/02/28 01:14:14;;;;;;;7.47;2.65;;;;;;;;;;5048191;28;20373;-68
2023/02/28 01:16:39;;;;;;;4.95;2.30;;;;;;;;;;5044550;28;20029;-68
2023/02/28 01:19:04;;;;;;;5.68;2.53;;;;;;;;;;5046171;28;20374;-68
2023/02/28 01:21:30;;;;;;;5.33;2.60;;;;;;;;;;5049004;28;20495;-68
2023/02/28 01:23:56;;;;;;;6.32;3.08;;;;;;;;;;5027591;28;20773;-66
2023/02/28 01:26:22;;;;;;;5.70;2.13;;;;;;;;;;5045330;28;20021;-68
2023/02/28 01:28:48;;;;;;;5.65;2.38;;;;;;;;;;5042964;28;20036;-68
2023/02/28 01:31:14;;;;;;;5.70;2.10;;;;;;;;;;5048373;28;20041;-69
2023/02/28 01:33:39;;;;;;;8.95;2.83;;;;;;;;;;5038389;28;20040;-68
2023/02/28 01:36:06;;;;;;;4.70;2.22;;;;;;;;;;5049124;28;20040;-70
2023/02/28 01:38:32;;;;;;;4.35;2.22;;;;;;;;;;5035980;28;20022;-68
2023/02/28 01:40:57;;;;;;;4.07;2.45;;;;;;;;;;5046456;28;20102;-68
2023/02/28 01:43:24;;;;;;;4.20;2.10;;;;;;;;;;5037103;28;20029;-71
2023/02/28 01:45:50;;;;;;;5.53;2.83;;;;;;;;;;5042657;28;20029;-70
2023/02/28 01:48:15;;;;;;;7.35;3.13;;;;;;;;;;5053715;28;20059;-66
2023/02/28 01:50:43;;;;;;;4.63;2.30;;;;;;;;;;5052428;28;20040;-66
2023/02/28 01:53:11;;;;;;;5.25;2.75;;;;;;;;;;5037653;28;20115;-66
2023/02/28 01:55:37;;;;;;;5.88;2.40;;;;;;;;;;5046117;28;20099;-67
2023/02/28 01:58:04;;;;;;;5.80;2.67;;;;;;;;;;5045031;28;20036;-67
2023/02/28 02:00:30;;;;;;;4.40;2.00;;;;;;;;;;5045995;28;20052;-68
2023/02/28 02:02:59;;;;;;;6.72;3.05;;;;;;;;;;5042916;28;20063;-78
2023/02/28 02:05:26;;;;;;;4.28;2.80;;;;;;;;;;5047469;28;20345;-71
2023/02/28 02:07:56;;;;;;;6.03;3.15;;;;;;;;;;5042772;28;20120;-70
2023/02/28 02:10:26;;;;;;;6.00;2.75;;;;;;;;;;5042082;28;20225;-70
2023/02/28 02:13:04;;;;;;;9.07;2.83;;;;;;;;;;5043340;28;20044;-71
2023/02/28 02:15:36;;;;;;;6.28;2.75;;;;;;;;;;5039082;28;20060;-72
2023/02/28 02:18:05;;;;;;;6.93;3.20;;;;;;;;;;5042519;28;20086;-71
2023/02/28 02:20:45;;;;;;;6.85;3.30;;;;;;;;;;5027240;28;20043;-69
2023/02/28 02:23:29;;;;;;;5.78;3.13;;;;;;;;;;5049281;28;20041;-70
2023/02/28 02:26:01;;;;;;;4.95;2.70;;;;;;;;;;5037905;28;20082;-71
2023/02/28 02:28:45;;;;;;;6.38;2.90;;;;;;;;;;5041009;28;20405;-70
2023/02/28 02:31:13;;;;;;;5.80;2.78;;;;;;;;;;5043028;28;20021;-71
2023/02/28 02:33:56;;;;;;;5.70;2.67;;;;;;;;;;5048110;28;20147;-70
2023/02/28 02:36:24;;;;;;;5.90;2.78;;;;;;;;;;5045625;28;20350;-71
2023/02/28 02:38:52;;;;;;;7.68;3.30;;;;;;;;;;5045422;28;20029;-68
2023/02/28 02:41:27;;;;;;;7.07;3.05;;;;;;;;;;5047120;28;20039;-70
2023/02/28 02:44:03;;;;;;;5.80;3.22;;;;;;;;;;5048424;28;20572;-69
2023/02/28 02:46:32;;;;;;;5.95;2.78;;;;;;;;;;5039674;28;20521;-72
2023/02/28 02:48:59;;;;;;;4.47;2.50;;;;;;;;;;5044036;28;20028;-71
2023/02/28 02:51:24;;;;;;;6.50;3.30;;;;;;;;;;5049783;28;20056;-70
2023/02/28 02:53:52;;;;;;;7.32;4.00;;;;;;;;;;5053806;28;20391;-74
2023/02/28 02:56:19;;;;;;;5.30;2.63;;;;;;;;;;5048605;28;20044;-72
2023/02/28 02:58:46;;;;;;;5.65;3.00;;;;;;;;;;5043059;28;20473;-71
2023/02/28 03:01:14;;;;;;;7.25;3.25;;;;;;;;;;5047936;28;20029;-68
2023/02/28 03:03:40;;;;;;;7.15;3.10;;;;;;;;;;5042577;28;20071;-67
2023/02/28 03:06:05;;;;;;;8.57;2.90;;;;;;;;;;5045175;28;20052;-68
2023/02/28 03:08:34;;;;;;;4.88;3.17;;;;;;;;;;5042864;28;20013;-67
2023/02/28 03:11:00;;;;;;;8.63;3.33;;;;;;;;;;5043857;28;20037;-68
2023/02/28 03:13:46;;;;;;;5.53;3.15;;;;;;;;;;5030621;28;20055;-69
2023/02/28 03:16:17;;;;;;;8.55;3.13;;;;;;;;;;5036877;28;20041;-67
2023/02/28 03:18:54;;;;;;;5.05;2.65;;;;;;;;;;5039009;28;20546;-80
2023/02/28 03:21:19;;;;;;;7.20;3.78;;;;;;;;;;5046873;28;20013;-68
2023/02/28 03:23:49;;;;;;;7.60;2.90;;;;;;;;;;5047114;28;20096;-67
2023/02/28 03:26:22;;;;;;;6.03;2.90;;;;;;;;;;5044446;28;20278;-68
2023/02/28 03:29:05;;;;;;;8.32;3.95;;;;;;;;;;5048052;28;20056;-68
2023/02/28 03:31:44;;;;;;;4.70;2.85;;;;;;;;;;5051369;28;20033;-64
2023/02/28 03:34:16;;;;;;;7.75;3.53;;;;;;;;;;5045603;28;20021;-71
2023/02/28 03:36:45;;;;;;;6.25;3.20;;;;;;;;;;5042147;28;20049;-71
2023/02/28 03:39:19;;;;;;;5.13;3.35;;;;;;;;;;5050828;28;20037;-70
2023/02/28 03:41:51;;;;;;;8.75;3.63;;;;;;;;;;5051591;28;20047;-69
2023/02/28 03:44:21;;;;;;;4.82;3.05;;;;;;;;;;5042067;28;20026;-70
2023/02/28 03:46:50;;;;;;;6.22;3.70;;;;;;;;;;5046207;28;20431;-70
2023/02/28 03:49:17;;;;;;;6.40;3.28;;;;;;;;;;5047053;28;20170;-70
2023/02/28 03:51:43;;;;;;;5.43;3.63;;;;;;;;;;5045211;28;20025;-71
2023/02/28 03:54:12;;;;;;;7.82;3.35;;;;;;;;;;5048220;28;20029;-68
2023/02/28 03:56:39;;;;;;;6.70;3.92;;;;;;;;;;5050741;28;20060;-70
2023/02/28 03:59:07;;;;;;;9.95;3.53;;;;;;;;;;5038981;28;20025;-71
2023/02/28 04:01:43;;;;;;;7.05;3.50;;;;;;;;;;5041963;28;20029;-71
2023/02/28 04:04:08;;;;;;;10.00;4.57;;;;;;;;;;5046652;28;20033;-71
2023/02/28 04:06:34;;;;;;;6.15;3.58;;;;;;;;;;5050863;28;20025;-71
2023/02/28 04:08:59;;;;;;;7.78;3.40;;;;;;;;;;5046867;28;20134;-71
2023/02/28 04:11:48;;;;;;;7.32;3.80;;;;;;;;;;5036707;28;20032;-72
2023/02/28 04:14:14;;;;;;;5.45;3.00;;;;;;;;;;5025747;28;20131;-73
2023/02/28 04:16:40;;;;;;;7.57;3.45;;;;;;;;;;5042692;28;20067;-72
2023/02/28 04:19:06;;;;;;;6.05;3.25;;;;;;;;;;5050105;28;20028;-71
2023/02/28 04:21:32;;;;;;;5.65;3.30;;;;;;;;;;5046039;28;20472;-71
2023/02/28 04:24:00;;;;;;;7.35;3.88;;;;;;;;;;5044293;28;20036;-71
2023/02/28 04:26:32;;;;;;;10.70;3.88;;;;;;;;;;5042071;28;20031;-71
2023/02/28 04:28:58;;;;;;;10.90;4.00;;;;;;;;;;5053954;28;20043;-72
2023/02/28 04:31:23;;;;;;;6.60;3.78;;;;;;;;;;5046221;28;20025;-74
2023/02/28 04:33:48;;;;;;;7.32;3.63;;;;;;;;;;5045776;28;20120;-71
2023/02/28 04:36:14;;;;;;;7.97;4.10;;;;;;;;;;5021324;28;20462;-71
2023/02/28 04:38:40;;;;;;;6.28;3.40;;;;;;;;;;5031565;28;20773;-70
2023/02/28 04:41:05;;;;;;;6.57;3.30;;;;;;;;;;5045645;28;20025;-70
2023/02/28 04:43:30;;;;;;;5.68;3.00;;;;;;;;;;5046957;28;20055;-71
2023/02/28 04:45:57;;;;;;;7.20;4.13;;;;;;;;;;5044519;28;20220;-69
2023/02/28 04:48:23;;;;;;;10.30;4.25;;;;;;;;;;5036435;28;20032;-77
2023/02/28 04:50:48;;;;;;;7.55;3.50;;;;;;;;;;5041536;28;20060;-67
2023/02/28 04:53:14;;;;;;;5.57;3.70;;;;;;;;;;5049487;28;20088;-65
2023/02/28 04:55:40;;;;;;;7.47;3.20;;;;;;;;;;5047633;28;20048;-66
2023/02/28 04:58:05;;;;;;;7.15;3.63;;;;;;;;;;5049911;28;20371;-65
2023/02/28 05:00:31;;;;;;;5.80;3.90;;;;;;;;;;5052687;28;20036;-67
2023/02/28 05:02:56;;;;;;;7.32;3.60;;;;;;;;;;5046997;28;20458;-67
2023/02/28 05:05:21;;;;;;;5.50;3.30;;;;;;;;;;5044458;28;20037;-64
2023/02/28 05:07:46;;;;;;;5.93;3.58;;;;;;;;;;5045920;28;20275;-68
2023/02/28 05:10:12;;;;;;;6.40;3.57;;;;;;;;;;5041408;28;20115;-68
2023/02/28 05:12:38;;;;;;;8.48;4.45;;;;;;;;;;5043802;28;20299;-67
2023/02/28 05:15:04;;;;;;;6.82;4.03;;;;;;;;;;5042615;28;20047;-68
2023/02/28 05:17:30;;;;;;;7.43;4.07;;;;;;;;;;5042599;28;20037;-66
2023/02/28 05:19:55;;;;;;;7.05;4.13;;;;;;;;;;5044003;28;20025;-68
2023/02/28 05:22:20;;;;;;;8.53;4.07;;;;;;;;;;5042689;28;20459;-68
2023/02/28 05:24:45;;;;;;;11.53;5.03;;;;;;;;;;5045749;28;20828;-70
2023/02/28 05:27:10;;;;;;;8.43;4.47;;;;;;;;;;5028967;28;20064;-68
2023/02/28 05:29:41;;;;;;;9.15;4.47;;;;;;;;;;5046142;28;20366;-67
2023/02/28 05:32:06;;;;;;;8.15;4.60;;;;;;;;;;5051272;28;20025;-68
2023/02/28 05:34:32;;;;;;;8.38;3.72;;;;;;;;;;5039315;28;20024;-68
2023/02/28 05:36:57;;;;;;;10.07;4.70;;;;;;;;;;5043927;28;20040;-68
2023/02/28 05:39:22;;;;;;;7.83;4.37;;;;;;;;;;5046688;28;20295;-66
2023/02/28 05:41:47;;;;;;;9.20;4.07;;;;;;;;;;5047424;28;20287;-70
2023/02/28 05:44:12;;;;;;;10.70;4.60;;;;;;;;;;5034336;28;20029;-68
2023/02/28 05:46:38;;;;;;;8.80;4.17;;;;;;;;;;5040636;28;20276;-79
2023/02/28 05:49:03;;;;;;;10.10;5.78;;;;;;;;;;5044050;28;20276;-80
2023/02/28 05:51:28;;;;;;;13.85;4.38;;;;;;;;;;5039163;28;20562;-79
2023/02/28 05:53:54;;;;;;;11.30;4.80;;;;;;;;;;5038341;28;20063;-79
2023/02/28 05:56:19;;;;;;;8.15;4.15;;;;;;;;;;5049199;28;20111;-80
2023/02/28 05:58:44;;;;;;;5.97;3.90;;;;;;;;;;5049044;28;20427;-79
2023/02/28 06:01:24;;;;;;;9.57;4.90;;;;;;;;;;5044302;28;20283;-70
2023/02/28 06:03:49;;;;;;;6.95;3.90;;;;;;;;;;5049276;28;20287;-67
2023/02/28 06:06:14;;;;;;;8.15;4.32;;;;;;;;;;5048478;28;20696;-71
2023/02/28 06:08:40;;;;;;;9.52;4.75;;;;;;;;;;5041875;28;20021;-73
2023/02/28 06:11:06;;;;;;;7.30;4.00;;;;;;;;;;5045243;28;20029;-71
2023/02/28 06:13:31;;;;;;;10.20;4.90;;;;;;;;;;5045598;28;20314;-71
2023/02/28 06:16:00;;;;;;;10.00;5.10;;;;;;;;;;5046335;28;20519;-72
2023/02/28 06:18:25;;;;;;;10.60;4.95;;;;;;;;;;5043972;28;20460;-72
2023/02/28 06:20:54;;;;;;;8.80;3.77;;;;;;;;;;5042530;28;20028;-69
2023/02/28 06:23:19;;;;;;;10.45;4.90;;;;;;;;;;5042133;28;20279;-71
2023/02/28 06:25:45;;;;;;;8.20;5.32;;;;;;;;;;5039459;28;20484;-79
2023/02/28 06:28:10;;;;;;;9.38;4.63;;;;;;;;;;5043639;28;20029;-78
2023/02/28 06:30:36;;;;;;;9.03;5.27;;;;;;;;;;5037501;28;20029;-77
2023/02/28 06:33:02;;;;;;;8.48;4.40;;;;;;;;;;5032155;28;20774;-80
2023/02/28 06:35:27;;;;;;;10.52;4.95;;;;;;;;;;5039686;28;20082;-79
2023/02/28 06:37:52;;;;;;;10.30;4.60;;;;;;;;;;5044496;28;20426;-68
2023/02/28 06:40:17;;;;;;;10.73;5.40;;;;;;;;;;5040286;28;20689;-69
2023/02/28 06:42:43;;;;;;;10.75;5.00;;;;;;;;;;5038979;28;20670;-69
2023/02/28 06:45:09;;;;;;;8.95;4.60;;;;;;;;;;5039468;28;20029;-68
2023/02/28 06:47:35;;;;;;;8.02;5.35;;;;;;;;;;5042914;28;20024;-69
2023/02/28 06:50:01;;;;;;;9.52;5.63;;;;;;;;;;5045961;28;20464;-72
2023/02/28 06:52:26;;;;;;;10.05;4.80;;;;;;;;;;5041709;28;20088;-70
2023/02/28 06:54:59;;;;;;;9.52;5.55;;;;;;;;;;5043549;28;20032;-70
2023/02/28 06:57:25;;;;;;;9.90;4.47;;;;;;;;;;5043987;28;20028;-74
2023/02/28 06:59:50;;;;;;;12.20;5.32;;;;;;;;;;5048438;28;20075;-68
2023/02/28 07:02:15;;;;;;;8.32;4.80;;;;;;;;;;5035887;28;20111;-69
2023/02/28 07:04:44;;;;;;;11.73;5.50;;;;;;;;;;5052324;28;20013;-67
2023/02/28 07:07:09;;;;;;;11.88;5.63;;;;;;;;;;5054188;28;20306;-70
2023/02/28 07:09:34;;;;;;;10.37;5.40;;;;;;;;;;5055708;28;20427;-68
2023/02/28 07:12:00;;;;;;;7.73;4.93;;;;;;;;;;5040554;28;20754;-68
2023/02/28 07:14:25;;;;;;;11.57;5.88;;;;;;;;;;5051870;28;20619;-67
2023/02/28 07:16:51;;;;;;;9.13;4.88;;;;;;;;;;5052157;28;20420;-67
2023/02/28 07:19:16;;;;;;;10.00;5.22;;;;;;;;;;5052191;28;20025;-73
2023/02/28 07:21:41;;;;;;;9.17;5.47;;;;;;;;;;5051743;28;20025;-74
2023/02/28 07:24:06;;;;;;;12.37;6.10;;;;;;;;;;5051859;28;20380;-73
2023/02/28 07:26:34;;;;;;;9.98;5.45;;;;;;;;;;5052019;28;20274;-74
2023/02/28 07:28:59;;;;;;;10.85;5.50;;;;;;;;;;5051879;28;20098;-74
2023/02/28 07:31:24;;;;;;;11.60;5.63;;;;;;;;;;5051468;28;20479;-72
2023/02/28 07:33:49;;;;;;;12.07;6.25;;;;;;;;;;5051708;28;20029;-74
2023/02/28 07:36:16;;;;;;;10.87;5.03;;;;;;;;;;5051785;28;20099;-73
2023/02/28 07:38:43;;;;;;;10.48;5.72;;;;;;;;;;5051244;28;20268;-65
2023/02/28 07:41:09;;;;;;;11.40;6.40;;;;;;;;;;5060424;28;20035;-66
2023/02/28 07:43:34;;;;;;;10.57;6.15;;;;;;;;;;5049441;28;20033;-65
2023/02/28 07:46:03;;;;;;;11.40;5.75;;;;;;;;;;5048577;28;20119;-65
2023/02/28 07:48:28;;;;;;;17.75;7.90;;;;;;;;;;5047224;28;20055;-67
2023/02/28 07:50:57;;;;;;;12.03;7.13;;;;;;;;;;5037541;28;20053;-64
2023/02/28 07:53:22;;;;;;;11.98;6.68;;;;;;;;;;5034555;28;20271;-68
2023/02/28 07:55:48;;;;;;;12.53;7.47;;;;;;;;;;5051191;28;20387;-73
2023/02/28 07:58:13;;;;;;;22.73;7.80;;;;;;;;;;5051330;28;20738;-72
2023/02/28 08:00:38;;;;;;;12.57;5.87;;;;;;;;;;5051016;28;20044;-72
2023/02/28 08:03:03;;;;;;;10.10;6.43;;;;;;;;;;5051080;28;20264;-74
2023/02/28 08:05:29;;;;;;;11.13;6.33;;;;;;;;;;5051091;28;20599;-72
2023/02/28 08:07:55;;;;;;;10.48;5.80;;;;;;;;;;5051189;28;20280;-71
2023/02/28 08:10:20;;;;;;;13.73;7.95;;;;;;;;;;5051029;28;20116;-72
2023/02/28 08:12:45;;;;;;;11.55;6.45;;;;;;;;;;5059343;28;20032;-67
2023/02/28 08:15:11;;;;;;;11.63;6.28;;;;;;;;;;5050323;28;20036;-66
2023/02/28 08:17:36;;;;;;;12.73;6.50;;;;;;;;;;5051035;28;20514;-66
2023/02/28 08:20:01;;;;;;;10.15;5.88;;;;;;;;;;5050846;28;20067;-65
2023/02/28 08:22:26;;;;;;;13.87;6.40;;;;;;;;;;5050851;28;20731;-65
2023/02/28 08:24:51;;;;;;;11.67;6.27;;;;;;;;;;5050958;28;20029;-65
2023/02/28 08:27:17;;;;;;;11.07;6.50;;;;;;;;;;5050720;28;20267;-66
2023/02/28 08:29:42;;;;;;;11.75;6.88;;;;;;;;;;5050162;28;20322;-70
2023/02/28 08:32:07;;;;;;;12.80;6.43;;;;;;;;;;5050078;28;20534;-68
2023/02/28 08:34:32;;;;;;;12.17;6.87;;;;;;;;;;5050870;28;20040;-66
2023/02/28 08:36:58;;;;;;;10.63;6.57;;;;;;;;;;5050528;28;20259;-65
2023/02/28 08:39:23;;;;;;;11.10;6.43;;;;;;;;;;5050508;28;20464;-67
2023/02/28 08:41:48;;;;;;;15.00;7.37;;;;;;;;;;5050104;28;20025;-68
2023/02/28 08:44:13;;;;;;;11.53;6.70;;;;;;;;;;5056624;28;20264;-65
2023/02/28 08:46:39;;;;;;;10.10;6.63;;;;;;;;;;5051534;28;20363;-68
2023/02/28 08:49:04;;;;;;;12.23;7.03;;;;;;;;;;5044199;28;20264;-70
2023/02/28 08:51:29;;;;;;;12.52;6.75;;;;;;;;;;5041109;28;20029;-67
2023/02/28 08:53:57;;;;;;;11.45;6.68;;;;;;;;;;5050424;28;20033;-65
2023/02/28 08:56:23;;;;;;;13.00;7.03;;;;;;;;;;5050172;28;20033;-69
2023/02/28 08:58:49;;;;;;;11.05;6.53;;;;;;;;;;5050288;28;20032;-69
2023/02/28 09:01:22;;;;;;;11.00;6.50;;;;;;;;;;5050067;28;20044;-65
2023/02/28 09:03:48;;;;;;;10.77;6.57;;;;;;;;;;5050029;28;20036;-64
2023/02/28 09:06:14;;;;;;;10.57;6.30;;;;;;;;;;5050399;28;20049;-71
2023/02/28 09:08:39;;;;;;;12.15;7.10;;;;;;;;;;5050036;28;20123;-68
2023/02/28 09:11:04;;;;;;;11.85;6.63;;;;;;;;;;5049728;28;20132;-68
2023/02/28 09:13:30;;;;;;;12.83;6.60;;;;;;;;;;5050263;28;20479;-66
2023/02/28 09:15:59;;;;;;;12.65;6.80;;;;;;;;;;5055641;28;20295;-67
2023/02/28 09:18:25;;;;;;;14.13;6.90;;;;;;;;;;5052263;28;20119;-69
2023/02/28 09:20:50;;;;;;;13.25;7.30;;;;;;;;;;5049767;28;20487;-67
2023/02/28 09:23:15;;;;;;;11.82;6.80;;;;;;;;;;5049743;28;20624;-67
2023/02/28 09:25:47;;;;;;;12.23;7.00;;;;;;;;;;5049452;28;20033;-73
2023/02/28 09:28:15;;;;;;;13.15;7.35;;;;;;;;;;5049333;28;20040;-67
2023/02/28 09:30:40;;;;;;;14.75;7.70;;;;;;;;;;5049134;28;20033;-69
2023/02/28 09:33:05;;;;;;;11.37;6.67;;;;;;;;;;5049297;28;20434;-67
2023/02/28 09:35:31;;;;;;;17.13;7.07;;;;;;;;;;5049751;28;20738;-68
2023/02/28 09:37:58;;;;;;;12.05;7.32;;;;;;;;;;5049469;28;20280;-66
2023/02/28 09:40:24;;;;;;;12.02;7.03;;;;;;;;;;5049425;28;20025;-68
2023/02/28 09:42:51;;;;;;;10.43;6.60;;;;;;;;;;5049117;28;20036;-69
2023/02/28 09:45:26;;;;;;;12.90;6.80;;;;;;;;;;5049442;28;20075;-73
2023/02/28 09:47:53;;;;;;;14.32;7.20;;;;;;;;;;5054789;28;20033;-74
2023/02/28 09:50:32;;;;;;;12.02;6.65;;;;;;;;;;5051479;28;20040;-73
2023/02/28 09:52:58;;;;;;;14.25;7.03;;;;;;;;;;5048869;28;20044;-72
2023/02/28 09:55:27;;;;;;;11.88;6.50;;;;;;;;;;5047998;28;20416;-75
2023/02/28 09:57:55;;;;;;;13.00;6.90;;;;;;;;;;5049306;28;20029;-72
2023/02/28 10:00:32;;;;;;;10.80;6.43;;;;;;;;;;5048976;28;20052;-63
2023/02/28 10:03:18;;;;;;;10.63;6.60;;;;;;;;;;5048911;28;20025;-74
2023/02/28 10:06:06;;;;;;;16.38;7.53;;;;;;;;;;5049311;28;20040;-72
2023/02/28 10:08:36;;;;;;;12.43;7.57;;;;;;;;;;5049095;28;20098;-73
2023/02/28 10:11:04;;;;;;;10.77;6.55;;;;;;;;;;5048848;28;20068;-74
2023/02/28 10:13:52;;;;;;;11.82;7.10;;;;;;;;;;5048679;28;20535;-73
2023/02/28 10:16:21;;;;;;;13.07;7.43;;;;;;;;;;5035456;28;20045;-73
2023/02/28 10:18:48;;;;;;;12.93;6.78;;;;;;;;;;5050417;28;20415;-72
2023/02/28 10:21:18;;;;;;;14.07;7.95;;;;;;;;;;5055969;28;20078;-68
2023/02/28 10:23:44;;;;;;;12.10;7.93;;;;;;;;;;5049000;28;20089;-73
2023/02/28 10:26:15;;;;;;;16.48;8.02;;;;;;;;;;5048598;28;20047;-74
2023/02/28 10:28:41;;;;;;;12.75;6.53;;;;;;;;;;5048748;28;20151;-74
2023/02/28 10:31:09;;;;;;;12.05;6.55;;;;;;;;;;5030634;28;20131;-72
2023/02/28 10:33:35;;;;;;;13.55;7.15;;;;;;;;;;5048652;28;20033;-73
2023/02/28 10:36:01;;;;;;;22.45;7.55;;;;;;;;;;5048651;28;20048;-73
2023/02/28 10:38:34;;;;;;;11.30;7.30;;;;;;;;;;5052097;28;20504;-67
2023/02/28 10:41:05;;;;;;;12.55;7.10;;;;;;;;;;5042063;28;20035;-73
2023/02/28 10:43:31;;;;;;;11.10;6.38;;;;;;;;;;5052908;28;20212;-73
2023/02/28 10:46:08;;;;;;;12.45;7.13;;;;;;;;;;5052779;28;20032;-72
2023/02/28 10:48:42;;;;;;;11.45;6.90;;;;;;;;;;5050683;28;20095;-73
2023/02/28 10:51:12;;;;;;;14.05;8.48;;;;;;;;;;5044456;28;20096;-73
2023/02/28 10:53:39;;;;;;;11.38;6.32;;;;;;;;;;5057748;28;20029;-72
2023/02/28 10:56:16;;;;;;;11.27;6.82;;;;;;;;;;5052532;28;20062;-71
2023/02/28 10:58:58;;;;;;;12.75;7.07;;;;;;;;;;5052127;28;20028;-74
2023/02/28 11:01:24;;;;;;;12.70;7.65;;;;;;;;;;5034133;28;20307;-72
2023/02/28 11:03:53;;;;;;;13.98;7.72;;;;;;;;;;5051969;28;20025;-73
2023/02/28 11:06:18;;;;;;;13.05;8.30;;;;;;;;;;5052407;28;20508;-75
2023/02/28 11:08:45;;;;;;;12.77;6.83;;;;;;;;;;5051910;28;20087;-73
2023/02/28 11:11:10;;;;;;;13.75;8.50;;;;;;;;;;5051951;28;20029;-74
2023/02/28 11:13:37;;;;;;;13.33;8.83;;;;;;;;;;5052361;28;20036;-72
2023/02/28 11:16:07;;;;;;;12.95;7.28;;;;;;;;;;5051801;28;20778;-66
2023/02/28 11:18:41;;;;;;;13.60;8.02;;;;;;;;;;5051636;28;20037;-64
2023/02/28 11:21:08;;;;;;;12.27;7.80;;;;;;;;;;5051633;28;20028;-66
2023/02/28 11:23:35;;;;;;;11.52;6.80;;;;;;;;;;5056296;28;20441;-66
2023/02/28 11:26:04;;;;;;;12.38;7.38;;;;;;;;;;5054634;28;20037;-67
2023/02/28 11:28:34;;;;;;;11.85;7.28;;;;;;;;;;5049490;28;20021;-66
2023/02/28 11:31:00;;;;;;;12.52;7.03;;;;;;;;;;5050003;28;20115;-69
2023/02/28 11:33:28;;;;;;;10.60;7.30;;;;;;;;;;5032392;28;20115;-66
2023/02/28 11:35:58;;;;;;;12.55;6.85;;;;;;;;;;5052109;28;20036;-66
2023/02/28 11:38:24;;;;;;;12.93;7.25;;;;;;;;;;5051041;28;20021;-65
2023/02/28 11:40:55;;;;;;;11.60;7.72;;;;;;;;;;5051150;28;20040;-67
2023/02/28 11:43:40;;;;;;;11.38;6.72;;;;;;;;;;5050735;28;20511;-68
2023/02/28 11:46:10;;;;;;;13.45;7.20;;;;;;;;;;5050847;28;20033;-67
2023/02/28 11:48:52;;;;;;;15.35;7.88;;;;;;;;;;5050609;28;20403;-66
2023/02/28 11:51:17;;;;;;;13.55;7.63;;;;;;;;;;5051406;28;20570;-73
2023/02/28 11:53:55;;;;;;;11.03;6.80;;;;;;;;;;5051630;28;20036;-67
2023/02/28 11:56:32;;;;;;;11.98;6.90;;;;;;;;;;5059255;28;20088;-75
2023/02/28 11:59:10;;;;;;;12.48;7.72;;;;;;;;;;5051458;28;20044;-74
2023/02/28 12:02:02;;;;;;;12.05;7.40;;;;;;;;;;5042118;28;20040;-74
2023/02/28 12:04:39;;;;;;;12.18;7.25;;;;;;;;;;5037037;28;20027;-75
2023/02/28 12:07:11;;;;;;;13.82;7.80;;;;;;;;;;5051052;28;20086;-76
2023/02/28 12:09:40;;;;;;;15.40;8.13;;;;;;;;;;5032835;28;20031;-67
2023/02/28 12:12:14;;;;;;;12.35;6.63;;;;;;;;;;5051020;28;20033;-71
2023/02/28 12:14:54;;;;;;;12.20;6.72;;;;;;;;;;5050876;28;20070;-75
2023/02/28 12:17:27;;;;;;;11.73;6.88;;;;;;;;;;5050971;28;20064;-74
2023/02/28 12:20:04;;;;;;;13.80;7.70;;;;;;;;;;5050704;28;20059;-74
2023/02/28 12:22:31;;;;;;;11.90;6.57;;;;;;;;;;5050701;28;20120;-74
2023/02/28 12:25:05;;;;;;;12.32;7.72;;;;;;;;;;5050806;28;20491;-74
2023/02/28 12:27:37;;;;;;;12.20;7.47;;;;;;;;;;5054985;28;20021;-69
2023/02/28 12:30:20;;;;;;;10.30;6.20;;;;;;;;;;5053693;28;20021;-68
2023/02/28 12:32:48;;;;;;;11.80;7.07;;;;;;;;;;5050926;28;20036;-68
2023/02/28 12:35:16;;;;;;;13.55;7.05;;;;;;;;;;5050549;28;20025;-69
2023/02/28 12:37:43;;;;;;;11.45;6.43;;;;;;;;;;5050759;28;20024;-69
2023/02/28 12:40:13;;;;;;;10.57;6.93;;;;;;;;;;5050524;28;20024;-69
2023/02/28 12:42:46;;;;;;;10.32;6.65;;;;;;;;;;5032683;28;20017;-67
2023/02/28 12:45:11;;;;;;;13.35;7.60;;;;;;;;;;5050000;28;20483;-69
2023/02/28 12:47:37;;;;;;;9.40;6.18;;;;;;;;;;5031799;28;20029;-69
2023/02/28 12:50:06;;;;;;;10.70;6.93;;;;;;;;;;5036248;28;20036;-71
2023/02/28 12:52:47;;;;;;;11.43;7.45;;;;;;;;;;5036177;28;20040;-70
2023/02/28 12:55:15;;;;;;;11.98;6.85;;;;;;;;;;5050266;28;20033;-69
2023/02/28 12:57:45;;;;;;;14.63;6.95;;;;;;;;;;5049331;28;20108;-68
2023/02/28 13:00:18;;;;;;;10.52;7.05;;;;;;;;;;5056545;28;20044;-70
2023/02/28 13:02:56;;;;;;;12.75;6.47;;;;;;;;;;5034279;28;20028;-70
2023/02/28 13:05:40;;;;;;;12.00;7.45;;;;;;;;;;5048186;28;20349;-66
2023/02/28 13:08:23;;;;;;;12.82;7.95;;;;;;;;;;5038388;28;20029;-68
2023/02/28 13:10:54;;;;;;;10.25;6.93;;;;;;;;;;5048677;28;20445;-66
2023/02/28 13:13:23;;;;;;;11.35;7.28;;;;;;;;;;5048716;28;20025;-67
2023/02/28 13:15:59;;;;;;;10.02;5.82;;;;;;;;;;5048516;28;20033;-66
2023/02/28 13:18:39;;;;;;;12.80;6.47;;;;;;;;;;5048486;28;20036;-66
2023/02/28 13:21:05;;;;;;;12.00;7.00;;;;;;;;;;5048771;28;20029;-65
2023/02/28 13:23:39;;;;;;;10.00;6.88;;;;;;;;;;5049099;28;20087;-69
2023/02/28 13:26:04;;;;;;;11.13;7.72;;;;;;;;;;5049749;28;20124;-69
2023/02/28 13:28:48;;;;;;;10.25;6.60;;;;;;;;;;5049477;28;20436;-69
2023/02/28 13:31:13;;;;;;;12.13;8.35;;;;;;;;;;5052918;28;20037;-70
2023/02/28 13:33:54;;;;;;;10.07;6.60;;;;;;;;;;5054678;28;20090;-69
2023/02/28 13:36:19;;;;;;;11.73;6.90;;;;;;;;;;5049185;28;20029;-70
2023/02/28 13:38:46;;;;;;;14.80;8.00;;;;;;;;;;5049894;28;20543;-69
2023/02/28 13:41:29;;;;;;;12.93;6.88;;;;;;;;;;5049586;28;20108;-72
2023/02/28 13:44:13;;;;;;;10.82;6.75;;;;;;;;;;5031158;28;20104;-68
2023/02/28 13:46:47;;;;;;;12.50;7.35;;;;;;;;;;5048409;28;20025;-66
2023/02/28 13:49:18;;;;;;;13.60;7.35;;;;;;;;;;5028628;28;20120;-65
2023/02/28 13:51:46;;;;;;;10.18;6.78;;;;;;;;;;5041413;28;20789;-67
2023/02/28 13:54:30;;;;;;;11.57;6.90;;;;;;;;;;5048967;28;20345;-65
2023/02/28 13:57:14;;;;;;;12.80;6.93;;;;;;;;;;5048056;28;20021;-67
2023/02/28 13:59:47;;;;;;;11.70;6.97;;;;;;;;;;5048779;28;20033;-66
2023/02/28 14:02:15;;;;;;;11.30;6.65;;;;;;;;;;5048898;28;20124;-73
2023/02/28 14:04:40;;;;;;;14.20;7.63;;;;;;;;;;5057754;28;20033;-69
2023/02/28 14:07:06;;;;;;;12.20;6.57;;;;;;;;;;5048761;28;20090;-69
2023/02/28 14:09:37;;;;;;;10.25;6.85;;;;;;;;;;5049256;28;20494;-69
2023/02/28 14:12:22;;;;;;;9.40;6.32;;;;;;;;;;5048515;28;20082;-72
2023/02/28 14:14:48;;;;;;;12.75;7.45;;;;;;;;;;4992157;28;20045;-69
2023/02/28 14:17:15;;;;;;;12.27;7.20;;;;;;;;;;5049719;28;20692;-68
2023/02/28 14:19:43;;;;;;;11.98;6.80;;;;;;;;;;5049350;28;20032;-67
2023/02/28 14:22:27;;;;;;;11.13;6.97;;;;;;;;;;5048412;28;20021;-74
2023/02/28 14:25:11;;;;;;;10.20;6.80;;;;;;;;;;5049083;28;20040;-73
2023/02/28 14:27:39;;;;;;;11.77;6.53;;;;;;;;;;5048763;28;20363;-73
2023/02/28 14:30:07;;;;;;;10.05;6.43;;;;;;;;;;5048611;28;20100;-73
2023/02/28 14:32:32;;;;;;;13.90;7.47;;;;;;;;;;5048313;28;20373;-72
2023/02/28 14:34:57;;;;;;;11.53;6.90;;;;;;;;;;5051483;28;20020;-72
2023/02/28 14:37:28;;;;;;;9.33;6.20;;;;;;;;;;5054462;28;20025;-67
2023/02/28 14:39:53;;;;;;;11.85;6.85;;;;;;;;;;5048571;28;20040;-66
2023/02/28 14:42:35;;;;;;;11.18;7.90;;;;;;;;;;5047975;28;20021;-66
2023/02/28 14:45:00;;;;;;;11.63;6.82;;;;;;;;;;5047932;28;20048;-64